createdAt,value
2023-03-31T00:01:41.994Z,8.25
2023-03-31T00:04:46.465Z,9.20
2023-03-31T00:07:49.283Z,11.77
2023-03-31T00:10:51.866Z,19.17
2023-03-31T00:13:55.802Z,5.38
2023-03-31T00:16:58.440Z,17.40
2023-03-31T00:20:10.348Z,10.48
2023-03-31T00:23:14.517Z,5.63
2023-03-31T00:26:17.125Z,13.77
2023-03-31T00:29:21.085Z,8.45
2023-03-31T00:32:23.723Z,12.15
2023-03-31T00:35:26.315Z,7.72
2023-03-31T00:38:30.110Z,8.48
2023-03-31T00:41:32.723Z,9.75
2023-03-31T00:44:37.667Z,12.23
2023-03-31T00:47:40.635Z,6.82
2023-03-31T00:50:45.767Z,7.57
2023-03-31T00:53:48.542Z,10.05
2023-03-31T00:56:53.166Z,11.95
2023-03-31T00:59:58.627Z,6.80
2023-03-31T01:03:03.515Z,10.88
2023-03-31T01:06:07.103Z,8.88
2023-03-31T01:09:09.877Z,11.18
2023-03-31T01:12:12.446Z,14.18
2023-03-31T01:15:16.721Z,16.20
2023-03-31T01:18:21.898Z,10.07
2023-03-31T01:22:02.536Z,8.65
2023-03-31T01:25:43.689Z,6.72
2023-03-31T01:28:47.524Z,12.43
2023-03-31T01:32:14.047Z,4.55
2023-03-31T01:35:26.535Z,15.02
2023-03-31T01:38:54.412Z,8.68
2023-03-31T01:41:59.273Z,11.95
2023-03-31T01:45:04.046Z,7.95
2023-03-31T01:48:09.089Z,10.05
2023-03-31T01:51:14.417Z,9.63
2023-03-31T01:54:20.288Z,13.15
2023-03-31T01:57:26.977Z,13.80
2023-03-31T02:00:33.306Z,18.23
2023-03-31T02:03:37.954Z,12.18
2023-03-31T02:06:41.986Z,10.52
2023-03-31T02:09:46.532Z,14.05
2023-03-31T02:12:50.511Z,11.07
2023-03-31T02:15:54.429Z,12.38
2023-03-31T02:19:02.158Z,17.48
2023-03-31T02:22:04.777Z,14.13
2023-03-31T02:25:08.054Z,9.40
2023-03-31T02:28:13.332Z,14.75
2023-03-31T02:31:23.356Z,6.95
2023-03-31T02:34:25.946Z,17.60
2023-03-31T02:37:28.547Z,18.73
2023-03-31T02:40:31.116Z,15.65
2023-03-31T02:43:35.187Z,17.15
2023-03-31T02:46:37.779Z,10.88
2023-03-31T02:49:41.263Z,16.05
2023-03-31T02:52:52.502Z,9.82
2023-03-31T02:56:01.382Z,9.43
2023-03-31T02:59:16.537Z,6.50
2023-03-31T03:02:20.335Z,17.33
2023-03-31T03:05:26.611Z,7.72
2023-03-31T03:08:30.714Z,11.30
2023-03-31T03:11:36.530Z,12.60
2023-03-31T03:14:42.157Z,8.32
2023-03-31T03:17:45.436Z,5.60
2023-03-31T03:20:49.219Z,6.85
2023-03-31T03:23:52.772Z,6.90
2023-03-31T03:26:55.333Z,2.90
2023-03-31T03:29:59.212Z,1.13
2023-03-31T03:33:01.780Z,9.02
2023-03-31T03:36:04.875Z,2.25
2023-03-31T03:39:08.559Z,5.68
2023-03-31T03:42:11.131Z,3.45
2023-03-31T03:45:15.092Z,2.63
2023-03-31T03:48:17.720Z,4.32
2023-03-31T03:51:20.297Z,8.40
2023-03-31T03:54:22.864Z,8.40
2023-03-31T03:57:26.228Z,9.13
2023-03-31T04:00:30.221Z,7.45
2023-03-31T04:03:32.742Z,6.03
2023-03-31T04:06:35.374Z,12.80
2023-03-31T04:09:37.959Z,7.10
2023-03-31T04:12:40.485Z,14.52
2023-03-31T04:15:44.456Z,15.25
2023-03-31T04:18:48.732Z,8.13
2023-03-31T04:21:58.629Z,10.85
2023-03-31T04:25:01.487Z,11.38
2023-03-31T04:28:06.655Z,16.35
2023-03-31T04:31:15.385Z,14.85
2023-03-31T04:34:18.017Z,13.88
2023-03-31T04:37:20.573Z,6.25
2023-03-31T04:40:23.148Z,11.18
2023-03-31T04:43:25.719Z,10.52
2023-03-31T04:46:29.681Z,10.65
2023-03-31T04:49:33.448Z,6.05
2023-03-31T04:52:36.060Z,7.45
2023-03-31T04:55:38.929Z,10.93
2023-03-31T04:58:41.537Z,10.07
2023-03-31T05:01:46.030Z,12.23
2023-03-31T05:04:48.667Z,6.18
2023-03-31T05:07:51.207Z,12.85
2023-03-31T05:10:53.809Z,4.65
2023-03-31T05:13:56.413Z,8.32
2023-03-31T05:17:00.343Z,3.67
2023-03-31T05:20:06.007Z,7.13
2023-03-31T05:23:08.538Z,7.80
2023-03-31T05:26:12.216Z,4.10
2023-03-31T05:29:16.530Z,1.00
2023-03-31T05:32:20.610Z,5.72
2023-03-31T05:35:23.181Z,6.70
2023-03-31T05:38:28.725Z,4.78
2023-03-31T05:41:31.253Z,2.28
2023-03-31T05:44:33.783Z,8.07
2023-03-31T05:47:37.795Z,5.47
2023-03-31T05:50:40.528Z,5.95
2023-03-31T05:53:43.165Z,3.60
2023-03-31T05:56:45.775Z,0.80
2023-03-31T05:59:48.334Z,1.75
2023-03-31T06:02:52.571Z,1.60
2023-03-31T06:05:55.673Z,4.78
2023-03-31T06:08:58.237Z,1.13
2023-03-31T06:12:00.779Z,5.63
2023-03-31T06:15:03.403Z,3.45
2023-03-31T06:18:10.525Z,1.20
2023-03-31T06:21:13.540Z,2.92
2023-03-31T06:24:16.063Z,5.00
2023-03-31T06:27:18.632Z,2.20
2023-03-31T06:30:21.478Z,4.15
2023-03-31T06:33:25.400Z,6.40
2023-03-31T06:36:28.040Z,2.28
2023-03-31T06:39:30.762Z,3.88
2023-03-31T06:42:33.294Z,6.93
2023-03-31T06:45:37.756Z,7.60
2023-03-31T06:48:42.326Z,3.25
2023-03-31T06:51:44.865Z,5.90
2023-03-31T06:54:47.395Z,4.63
2023-03-31T06:57:49.970Z,8.88
2023-03-31T07:00:52.764Z,4.82
2023-03-31T07:03:56.826Z,3.35
2023-03-31T07:06:59.415Z,4.20
2023-03-31T07:10:01.958Z,8.50
2023-03-31T07:13:05.706Z,13.55
2023-03-31T07:16:09.915Z,8.65
2023-03-31T07:19:15.413Z,9.77
2023-03-31T07:22:17.949Z,3.15
2023-03-31T07:25:20.601Z,7.28
2023-03-31T07:28:23.175Z,7.65
2023-03-31T07:31:25.953Z,8.88
2023-03-31T07:34:29.936Z,8.65
2023-03-31T07:37:36.106Z,11.52
2023-03-31T07:40:38.907Z,12.75
2023-03-31T07:43:41.691Z,12.13
2023-03-31T07:46:44.481Z,12.00
2023-03-31T07:49:48.613Z,14.48
2023-03-31T07:52:51.354Z,12.88
2023-03-31T07:55:53.931Z,6.38
2023-03-31T07:58:57.924Z,18.02
2023-03-31T08:02:00.710Z,9.77
2023-03-31T08:05:05.213Z,11.70
2023-03-31T08:08:07.821Z,5.35
2023-03-31T08:11:10.659Z,4.78
2023-03-31T08:14:13.238Z,9.30
2023-03-31T08:17:16.001Z,7.25
2023-03-31T08:20:20.158Z,7.15
2023-03-31T08:23:22.682Z,10.77
2023-03-31T08:26:25.512Z,10.48
2023-03-31T08:29:28.051Z,12.82
2023-03-31T08:32:30.707Z,18.13
2023-03-31T08:35:34.621Z,13.40
2023-03-31T08:38:38.973Z,16.65
2023-03-31T08:41:50.096Z,14.45
2023-03-31T08:44:56.543Z,15.60
2023-03-31T08:48:00.337Z,16.48
2023-03-31T08:51:06.622Z,19.65
2023-03-31T08:54:14.901Z,21.92
2023-03-31T08:57:20.156Z,18.23
2023-03-31T09:00:22.871Z,20.55
2023-03-31T09:03:27.771Z,24.30
2023-03-31T09:06:35.348Z,20.85
2023-03-31T09:12:47.130Z,14.25
2023-03-31T09:18:52.548Z,23.20
2023-03-31T09:21:56.582Z,20.60
2023-03-31T09:25:00.515Z,17.65
2023-03-31T09:28:03.677Z,21.10
2023-03-31T09:31:09.822Z,21.20
2023-03-31T09:34:15.564Z,9.80
2023-03-31T09:37:19.469Z,16.50
2023-03-31T09:40:23.207Z,22.00
2023-03-31T09:43:27.085Z,12.63
2023-03-31T09:46:31.573Z,20.23
2023-03-31T09:49:35.046Z,14.10
2023-03-31T09:52:41.372Z,12.95
2023-03-31T09:55:45.570Z,14.13
2023-03-31T09:58:48.914Z,13.80
2023-03-31T10:01:53.004Z,13.27
2023-03-31T10:04:55.588Z,4.07
2023-03-31T10:08:20.140Z,26.63
2023-03-31T10:11:23.034Z,10.93
2023-03-31T10:14:27.160Z,17.17
2023-03-31T10:17:30.434Z,13.27
2023-03-31T10:20:38.085Z,18.08
2023-03-31T10:23:42.966Z,9.63
2023-03-31T10:26:48.587Z,10.18
2023-03-31T10:29:53.156Z,8.20
2023-03-31T10:32:55.815Z,19.83
2023-03-31T10:35:59.387Z,8.85
2023-03-31T10:39:05.836Z,10.75
2023-03-31T10:42:08.503Z,11.18
2023-03-31T10:45:26.361Z,8.00
2023-03-31T10:48:38.672Z,13.45
2023-03-31T10:51:41.269Z,12.05
2023-03-31T10:54:49.174Z,17.55
2023-03-31T10:57:54.693Z,15.85
2023-03-31T11:01:04.399Z,4.85
2023-03-31T11:04:19.875Z,14.30
2023-03-31T11:07:29.526Z,17.88
2023-03-31T11:10:58.662Z,6.93
2023-03-31T11:14:03.346Z,6.60
2023-03-31T11:17:09.194Z,12.85
2023-03-31T11:20:16.480Z,12.50
2023-03-31T11:23:22.210Z,12.05
2023-03-31T11:26:30.954Z,7.18
2023-03-31T11:29:35.819Z,12.63
2023-03-31T11:32:51.694Z,6.63
2023-03-31T11:36:02.026Z,15.05
2023-03-31T11:39:15.357Z,8.18
2023-03-31T11:42:21.443Z,7.65
2023-03-31T11:45:25.507Z,7.15
2023-03-31T11:48:36.163Z,2.17
2023-03-31T11:51:42.579Z,5.32
2023-03-31T11:54:48.772Z,10.10
2023-03-31T11:57:55.991Z,6.35
2023-03-31T12:01:03.214Z,10.77
2023-03-31T12:04:07.823Z,10.80
2023-03-31T12:07:23.744Z,8.20
2023-03-31T12:10:32.495Z,3.63
2023-03-31T12:13:40.892Z,10.18
2023-03-31T12:16:45.992Z,11.48
2023-03-31T12:19:49.574Z,12.70
2023-03-31T12:22:52.080Z,11.40
2023-03-31T12:25:56.660Z,5.30
2023-03-31T12:29:03.221Z,6.97
2023-03-31T12:32:07.900Z,11.07
2023-03-31T12:35:22.279Z,17.30
2023-03-31T12:38:34.904Z,9.30
2023-03-31T12:41:39.593Z,10.30
2023-03-31T12:44:50.315Z,9.73
2023-03-31T12:48:00.883Z,5.60
2023-03-31T12:51:10.293Z,7.60
2023-03-31T12:54:21.598Z,7.90
2023-03-31T12:57:24.542Z,9.65
2023-03-31T13:00:30.199Z,2.97
2023-03-31T13:04:10.686Z,5.30
2023-03-31T13:07:27.178Z,7.38
2023-03-31T13:10:31.572Z,5.63
2023-03-31T13:13:34.213Z,5.57
2023-03-31T13:16:38.160Z,4.10
2023-03-31T13:19:41.552Z,3.85
2023-03-31T13:22:44.998Z,3.60
2023-03-31T13:25:51.642Z,4.28
2023-03-31T13:29:26.922Z,7.88
2023-03-31T13:32:30.881Z,7.75
2023-03-31T13:35:34.934Z,5.07
2023-03-31T13:38:44.163Z,5.97
2023-03-31T13:41:53.099Z,7.72
2023-03-31T13:45:06.308Z,7.50
2023-03-31T13:48:20.070Z,5.18
2023-03-31T13:51:43.048Z,8.48
2023-03-31T13:54:55.011Z,3.42
2023-03-31T13:58:34.115Z,5.93
2023-03-31T14:02:02.466Z,6.85
2023-03-31T14:05:26.023Z,4.60
2023-03-31T14:08:34.608Z,8.73
2023-03-31T14:11:37.242Z,8.30
2023-03-31T14:14:41.435Z,7.35
2023-03-31T14:17:44.642Z,7.13
2023-03-31T14:20:54.616Z,5.90
2023-03-31T14:24:01.303Z,8.77
2023-03-31T14:27:06.542Z,6.95
2023-03-31T14:30:13.906Z,5.97
2023-03-31T14:36:29.501Z,5.97
2023-03-31T14:39:33.175Z,7.93
2023-03-31T14:42:39.413Z,4.07
2023-03-31T14:45:42.095Z,6.20
2023-03-31T14:48:45.854Z,5.35
2023-03-31T14:51:49.741Z,4.03
2023-03-31T14:54:53.352Z,8.98
2023-03-31T14:57:55.996Z,8.13
2023-03-31T15:00:58.584Z,9.77
2023-03-31T15:04:01.205Z,7.10
2023-03-31T15:07:06.063Z,7.40
2023-03-31T15:10:09.200Z,10.10
2023-03-31T15:13:12.582Z,13.63
2023-03-31T15:16:22.440Z,6.57
2023-03-31T15:19:25.712Z,3.38
2023-03-31T15:22:30.565Z,8.32
2023-03-31T15:25:35.119Z,13.88
2023-03-31T15:28:40.763Z,7.15
2023-03-31T15:31:44.321Z,4.45
2023-03-31T15:34:47.859Z,8.27
2023-03-31T15:37:53.103Z,8.65
2023-03-31T15:40:56.095Z,3.22
2023-03-31T15:44:05.401Z,6.47
2023-03-31T15:47:09.793Z,4.97
2023-03-31T15:50:13.798Z,10.82
2023-03-31T15:53:29.924Z,8.02
2023-03-31T15:56:36.292Z,4.00
2023-03-31T16:02:54.200Z,4.90
2023-03-31T16:05:57.425Z,6.95
2023-03-31T16:09:05.632Z,5.75
2023-03-31T16:12:13.266Z,4.65
2023-03-31T16:15:17.160Z,5.47
2023-03-31T16:18:25.808Z,5.95
2023-03-31T16:21:29.782Z,4.40
2023-03-31T16:24:34.381Z,6.43
2023-03-31T16:27:40.808Z,5.78
2023-03-31T16:30:44.395Z,6.07
2023-03-31T16:33:54.959Z,5.97
2023-03-31T16:36:57.556Z,8.52
2023-03-31T16:40:01.691Z,5.85
2023-03-31T16:43:11.831Z,8.55
2023-03-31T16:46:14.395Z,8.07
2023-03-31T16:49:16.935Z,6.75
2023-03-31T16:52:19.700Z,4.15
2023-03-31T16:55:23.581Z,4.78
2023-03-31T16:58:26.267Z,8.15
2023-03-31T17:01:28.901Z,3.60
2023-03-31T17:04:31.688Z,4.25
2023-03-31T17:07:34.675Z,4.30
2023-03-31T17:10:38.769Z,5.18
2023-03-31T17:13:41.780Z,7.40
2023-03-31T17:16:48.565Z,10.55
2023-03-31T17:19:52.859Z,17.73
2023-03-31T17:22:55.411Z,19.23
2023-03-31T17:25:59.270Z,18.50
2023-03-31T17:29:01.860Z,16.50
2023-03-31T17:32:04.524Z,15.07
2023-03-31T17:35:07.929Z,12.25
2023-03-31T17:38:12.775Z,11.27
2023-03-31T17:41:17.654Z,14.68
2023-03-31T17:44:20.246Z,19.33
2023-03-31T17:47:22.791Z,7.45
2023-03-31T17:50:25.459Z,10.50
2023-03-31T17:53:28.327Z,13.40
2023-03-31T17:56:32.225Z,19.55
2023-03-31T17:59:35.590Z,20.83
2023-03-31T18:02:39.076Z,8.27
2023-03-31T18:05:41.600Z,18.98
2023-03-31T18:08:44.373Z,20.42
2023-03-31T18:11:48.341Z,10.73
2023-03-31T18:14:51.733Z,14.30
2023-03-31T18:17:54.737Z,11.35
2023-03-31T18:20:57.322Z,17.42
2023-03-31T18:23:59.902Z,22.02
2023-03-31T18:27:03.806Z,17.13
2023-03-31T18:30:08.105Z,17.17
2023-03-31T18:33:10.984Z,16.30
2023-03-31T18:36:16.146Z,14.20
2023-03-31T18:39:18.752Z,14.82
2023-03-31T18:42:25.126Z,16.10
2023-03-31T18:45:28.271Z,13.05
2023-03-31T18:48:30.940Z,16.33
2023-03-31T18:51:33.838Z,9.45
2023-03-31T18:54:36.556Z,22.48
2023-03-31T18:57:40.532Z,16.02
2023-03-31T19:00:43.152Z,24.25
2023-03-31T19:03:46.103Z,23.02
2023-03-31T19:06:48.692Z,24.30
2023-03-31T19:09:51.340Z,29.90
2023-03-31T19:12:55.272Z,26.83
2023-03-31T19:15:57.867Z,30.42
2023-03-31T19:19:00.400Z,13.10
2023-03-31T19:22:02.975Z,23.83
2023-03-31T19:25:06.494Z,12.75
2023-03-31T19:28:10.413Z,13.15
2023-03-31T19:31:13.002Z,13.18
2023-03-31T19:34:16.620Z,15.25
2023-03-31T19:37:19.336Z,20.83
2023-03-31T19:40:21.906Z,15.25
2023-03-31T19:43:25.920Z,13.63
2023-03-31T19:46:28.679Z,21.27
2023-03-31T19:49:31.471Z,13.65
2023-03-31T19:52:34.003Z,18.90
2023-03-31T19:55:37.510Z,12.02
2023-03-31T19:58:41.828Z,32.75
2023-03-31T20:01:44.463Z,17.10
2023-03-31T20:04:47.282Z,26.00
2023-03-31T20:07:49.885Z,31.25
2023-03-31T20:10:52.464Z,33.72
2023-03-31T20:13:56.572Z,18.23
2023-03-31T20:17:01.018Z,18.83
2023-03-31T20:20:03.984Z,24.42
2023-03-31T20:23:06.605Z,22.10
2023-03-31T20:26:11.040Z,18.50
2023-03-31T20:29:14.944Z,32.78
2023-03-31T20:32:17.497Z,27.15
2023-03-31T20:35:20.093Z,33.28
2023-03-31T20:38:22.640Z,35.67
2023-03-31T20:41:26.644Z,27.13
2023-03-31T20:44:30.659Z,22.85
2023-03-31T20:47:34.696Z,22.35
2023-03-31T20:50:39.476Z,17.73
2023-03-31T20:53:43.693Z,16.75
2023-03-31T20:56:47.017Z,13.40
2023-03-31T20:59:51.583Z,29.85
2023-03-31T21:02:54.195Z,7.97
2023-03-31T21:05:56.805Z,10.93
2023-03-31T21:08:59.350Z,15.25
2023-03-31T21:12:02.666Z,26.65
2023-03-31T21:15:07.614Z,26.15
2023-03-31T21:18:10.336Z,25.83
2023-03-31T21:21:13.569Z,22.05
2023-03-31T21:24:16.200Z,22.02
2023-03-31T21:27:18.755Z,23.10
2023-03-31T21:30:22.678Z,23.67
2023-03-31T21:33:25.917Z,6.65
2023-03-31T21:36:29.175Z,13.43
2023-03-31T21:39:31.719Z,7.72
2023-03-31T21:42:34.650Z,8.60
2023-03-31T21:45:38.616Z,23.15
2023-03-31T21:48:41.198Z,7.63
2023-03-31T21:51:43.763Z,3.80
2023-03-31T21:54:46.328Z,28.70
2023-03-31T21:57:48.935Z,13.43
2023-03-31T22:00:52.868Z,15.27
2023-03-31T22:03:55.462Z,9.65
2023-03-31T22:06:58.039Z,41.58
2023-03-31T22:10:00.685Z,35.78
2023-03-31T22:13:03.220Z,49.92
2023-03-31T22:16:15.577Z,40.25
2023-03-31T22:19:18.240Z,42.30
2023-03-31T22:22:20.976Z,38.83
2023-03-31T22:25:23.497Z,34.00
2023-03-31T22:28:26.321Z,52.17
2023-03-31T22:31:30.781Z,44.60
2023-03-31T22:34:33.396Z,36.58
2023-03-31T22:37:36.267Z,24.67
2023-03-31T22:40:38.834Z,46.35
2023-03-31T22:43:43.831Z,46.88
2023-03-31T22:46:50.659Z,53.85
2023-03-31T22:49:53.225Z,44.05
2023-03-31T22:52:55.751Z,29.30
2023-03-31T22:55:58.594Z,47.22
2023-03-31T22:59:01.137Z,60.67
2023-03-31T23:02:05.277Z,50.85
2023-03-31T23:05:08.535Z,54.17
2023-03-31T23:08:11.064Z,28.00
2023-03-31T23:11:13.940Z,32.75
2023-03-31T23:14:16.540Z,60.70
2023-03-31T23:17:20.671Z,26.05
2023-03-31T23:20:24.423Z,48.55
2023-03-31T23:23:26.986Z,48.78
2023-03-31T23:26:30.210Z,33.60
2023-03-31T23:29:33.305Z,61.47
2023-03-31T23:32:37.683Z,52.85
2023-03-31T23:35:40.195Z,46.47
2023-03-31T23:38:42.813Z,96.60
2023-03-31T23:41:45.685Z,85.63
2023-03-31T23:44:48.216Z,82.57
2023-03-31T23:47:52.104Z,73.47
2023-03-31T23:50:54.714Z,50.80
2023-03-31T23:53:57.304Z,88.43
2023-03-31T23:56:59.971Z,78.28
